Helena Regional Airport
KHLN : now visible

Airfield :











YOU CAN JOIN US ON...

 
LOGIN :

Register | Disclaimer

   EN    FR    IT 

 









Legend :    VFR   Marginal VFR   IFR   Intensive IFR   Very Intensive IFR
Visi :
Ceiling :
>= 8 km
>= 3000ft
5 to 8 km
1000 to 3000 ft
1500m to 5 km
500 to 1000 ft
800 to 1500m
200 to 500 ft
< 800m
< 200 ft
Symbols :   Thunderstorms  Fog  Heavy snow  Heavy precipitations  Wind > 20 kt






- Airport Elevation : 3877 ft
- IATA code : HLN


KHLN - Helena Regional

CURRENT METAR :
  • 231853Z 01007KT 330V060 10SM FEW090 29/09 A2991 RMK AO2 SLP102 T02890089

EXPIRED METARs :
  • 231753Z 28014KT 10SM FEW070 FEW100 28/09 A2991 RMK AO2 SLP099 T02780089 10289 20211 53009
  • 231653Z 26014G22KT 10SM FEW110 28/08 A2989 RMK AO2 WSHFT 1608 SLP092 T02830078
  • 231628Z 26013G19KT 10SM BKN110 28/08 A2989 RMK AO2 WSHFT 1608 T02830078

TAF KHLN
Valid from the 23 at 18:00 until the 24 at 18:00 UTC


231720Z 2318/2418 29013G23KT P6SM VCSH SCT090
TEMPO 2318/2321 4SM -SHRA BR BKN090
FM232100 31014G24KT P6SM VCTS FEW050CB SCT090
FM240100 31008KT P6SM FEW090 FEW250
KZLC FIR / North America



MET'MAP, your aeronautical weather chart ! - Copyright ORBIFLY December 2007 - Disclaimer

ORBIFLY MET'MAP TEAM :

Programming & Development : Alexandra Zaïnal
Concept & original design : Baudouin d'Aumeries
Assistance for programming : Marc-Olivier Méhu
Technical & hardware support : Manuel Goepfert

Contact : metmap@orbifly.com




SOURCES & CREDITS :

   NOAA       Earth
Advisory